Time;durP1;ratioP1;P1;durP2;ratioP2;P2;SDS_P1;SDS_P2;PMS_P1;PMS_P2;Temp;Humidity;BMP_temperature;BMP_pressure;BME280_temperature;BME280_humidity;BME280_pressure;Samples;Min_cycle;Max_cycle;Signal;HPM_P1;HPM_P2
2022/12/10 15:28:38;;;;;;;;;;;;;;;1.22;79.34;97224.06;5440947;24;19924;-64
2022/12/10 15:31:22;;;;;;;;;;;;;;;1.13;79.31;97212.41;4858905;29;19920;-63
2022/12/10 15:33:49;;;;;;;;;;;;;;;1.14;79.18;97216.69;4850891;29;19969;-61
2022/12/10 15:36:18;;;;;;;;;;;;;;;1.18;79.27;97212.22;4846505;29;19924;-62
2022/12/10 15:38:44;;;;;;;;;;;;;;;1.12;78.98;97217.66;4842182;29;19917;-62
2022/12/10 15:41:23;;;;;;;;;;;;;;;1.09;79.22;97220.38;4838213;29;19920;-61
2022/12/10 15:43:52;;;;;;;;;;;;;;;1.13;79.22;97220.16;4840209;29;19916;-62
2022/12/10 15:46:17;;;;;;;;;;;;;;;1.11;79.14;97219.41;4841258;29;19916;-61
2022/12/10 15:48:42;;;;;;;;;;;;;;;1.10;79.35;97228.09;4843369;29;19923;-62
2022/12/10 15:51:08;;;;;;;;;;;;;;;1.08;79.15;97226.47;4843813;29;19932;-62
2022/12/10 15:53:37;;;;;;;;;;;;;;;1.09;78.20;97226.38;4840335;29;19923;-62
2022/12/10 15:56:02;;;;;;;;;;;;;;;1.08;78.53;97227.31;4857318;29;19916;-61
2022/12/10 15:58:28;;;;;;;;;;;;;;;1.01;78.18;97232.81;4842641;29;19916;-62
2022/12/10 16:00:53;;;;;;;;;;;;;;;0.94;78.54;97243.44;4843533;29;20376;-62
2022/12/10 16:03:19;;;;;;;;;;;;;;;0.88;78.88;97248.88;4841930;29;20384;-62
2022/12/10 16:05:46;;;;;;;;;;;;;;;0.89;78.72;97252.28;4842903;29;19951;-62
2022/12/10 16:08:12;;;;;;;;;;;;;;;0.88;79.14;97248.88;4840318;29;19960;-62
2022/12/10 16:10:37;;;;;;;;;;;;;;;0.85;79.09;97256.75;4843212;29;20021;-62
2022/12/10 16:13:04;;;;;;;;;;;;;;;0.89;78.94;97249.69;4841438;29;20479;-64
2022/12/10 16:15:30;;;;;;;;;;;;;;;0.92;78.60;97258.13;4820209;29;19916;-65
2022/12/10 16:17:55;;;;;;;;;;;;;;;0.97;79.14;97265.69;4840223;29;20403;-64
2022/12/10 16:20:25;;;;;;;;;;;;;;;0.96;78.78;97261.41;4842648;29;19912;-64
2022/12/10 16:22:51;;;;;;;;;;;;;;;0.96;79.15;97261.41;4841480;29;19928;-65
2022/12/10 16:25:16;;;;;;;;;;;;;;;0.97;78.86;97265.69;4823481;29;19916;-64
2022/12/10 16:27:42;;;;;;;;;;;;;;;0.94;79.13;97258.91;4840830;29;19916;-65
2022/12/10 16:30:11;;;;;;;;;;;;;;;0.97;79.09;97262.28;4841138;29;20358;-64
2022/12/10 16:32:36;;;;;;;;;;;;;;;1.01;78.25;97263.81;4842710;29;19920;-65
2022/12/10 16:35:01;;;;;;;;;;;;;;;0.94;78.19;97271.00;4839877;29;19965;-64
2022/12/10 16:37:26;;;;;;;;;;;;;;;0.92;77.81;97275.38;4841216;29;19924;-65
2022/12/10 16:39:51;;;;;;;;;;;;;;;0.95;77.54;97276.06;4841775;29;19961;-64
2022/12/10 16:42:17;;;;;;;;;;;;;;;0.90;77.08;97266.88;4843341;29;19978;-65
2022/12/10 16:44:42;;;;;;;;;;;;;;;0.84;77.33;97272.31;4842156;29;19949;-65
2022/12/10 16:47:11;;;;;;;;;;;;;;;0.81;77.89;97275.03;4837524;29;19923;-66
2022/12/10 16:49:36;;;;;;;;;;;;;;;0.74;78.56;97281.38;4837140;29;20304;-64
2022/12/10 16:52:01;;;;;;;;;;;;;;;0.76;78.47;97284.69;4842547;29;19912;-65
2022/12/10 16:54:26;;;;;;;;;;;;;;;0.76;79.04;97279.53;4841065;29;20015;-64
2022/12/10 16:56:52;;;;;;;;;;;;;;;0.76;78.84;97279.53;4841151;29;20053;-64
2022/12/10 16:59:17;;;;;;;;;;;;;;;0.78;78.84;97288.06;4840769;29;20056;-64
2022/12/10 17:01:42;;;;;;;;;;;;;;;0.80;78.61;97286.25;4841626;29;20011;-63
2022/12/10 17:04:08;;;;;;;;;;;;;;;0.78;78.00;97290.66;4842037;29;19988;-64
2022/12/10 17:06:33;;;;;;;;;;;;;;;0.76;78.54;97290.72;4853298;29;20504;-62
2022/12/10 17:08:58;;;;;;;;;;;;;;;0.77;78.90;97296.72;4837973;29;19959;-63
2022/12/10 17:14:14;;;;;;;;;;;;;;;0.73;78.62;97297.75;4841244;29;20022;-63
2022/12/10 17:16:40;;;;;;;;;;;;;;;0.74;78.71;97296.84;4856085;29;20358;-62
2022/12/10 17:19:05;;;;;;;;;;;;;;;0.79;78.81;97300.91;4840669;29;19962;-65
2022/12/10 17:21:30;;;;;;;;;;;;;;;0.77;78.70;97309.63;4840898;29;20392;-63
2022/12/10 17:23:55;;;;;;;;;;;;;;;0.74;78.73;97302.84;4837384;29;20391;-63
2022/12/10 17:26:26;;;;;;;;;;;;;;;0.77;79.03;97307.88;4841406;29;20411;-63
2022/12/10 17:28:51;;;;;;;;;;;;;;;0.74;78.63;97318.34;4837747;29;19928;-64
2022/12/10 17:31:16;;;;;;;;;;;;;;;0.73;78.84;97302.94;4838299;29;19920;-63
2022/12/10 17:33:41;;;;;;;;;;;;;;;0.69;79.16;97302.22;4840952;29;19917;-63
2022/12/10 17:36:07;;;;;;;;;;;;;;;0.66;79.10;97310.94;4840140;29;19919;-63
2022/12/10 17:38:33;;;;;;;;;;;;;;;0.63;79.79;97305.91;4838749;29;19916;-62
2022/12/10 17:40:58;;;;;;;;;;;;;;;0.61;79.63;97310.28;4855181;29;19923;-63
2022/12/10 17:43:24;;;;;;;;;;;;;;;0.56;79.75;97314.81;4841044;29;19917;-63
2022/12/10 17:45:50;;;;;;;;;;;;;;;0.54;79.59;97306.28;4841028;29;19916;-63
2022/12/10 17:48:15;;;;;;;;;;;;;;;0.56;79.61;97311.41;4838117;29;19955;-64
2022/12/10 17:50:43;;;;;;;;;;;;;;;0.56;79.25;97308.81;4837756;29;19916;-63
2022/12/10 17:53:09;;;;;;;;;;;;;;;0.54;79.71;97310.59;4837376;29;19964;-63
2022/12/10 17:55:35;;;;;;;;;;;;;;;0.51;79.54;97310.72;4839693;29;20463;-63
2022/12/10 17:58:00;;;;;;;;;;;;;;;0.49;79.49;97310.81;4823007;29;20011;-63
2022/12/10 18:00:26;;;;;;;;;;;;;;;0.54;79.38;97315.78;4839346;29;19916;-63
2022/12/10 18:02:51;;;;;;;;;;;;;;;0.51;79.21;97321.88;4855101;29;19927;-63
2022/12/10 18:05:17;;;;;;;;;;;;;;;0.45;79.47;97312.69;4839889;29;19920;-63
2022/12/10 18:07:42;;;;;;;;;;;;;;;0.46;78.99;97316.94;4832832;29;19924;-63
2022/12/10 18:10:12;;;;;;;;;;;;;;;0.49;79.73;97318.56;4839547;29;20035;-63
2022/12/10 18:12:37;;;;;;;;;;;;;;;0.51;79.85;97318.47;4823664;29;19916;-63
2022/12/10 18:15:03;;;;;;;;;;;;;;;0.44;79.66;97318.72;4839499;29;19931;-63
2022/12/10 18:17:28;;;;;;;;;;;;;;;0.44;79.68;97326.47;4840333;29;20404;-63
2022/12/10 18:19:53;;;;;;;;;;;;;;;0.46;79.36;97332.41;4840535;29;20395;-63
2022/12/10 18:22:19;;;;;;;;;;;;;;;0.51;79.98;97339.94;4837595;29;20452;-61
2022/12/10 18:24:44;;;;;;;;;;;;;;;0.44;79.34;97331.63;4838513;29;19920;-63
2022/12/10 18:27:13;;;;;;;;;;;;;;;0.42;79.66;97338.63;4840147;29;19920;-63
2022/12/10 18:29:38;;;;;;;;;;;;;;;0.44;79.54;97331.63;4838993;29;20304;-63
2022/12/10 18:32:03;;;;;;;;;;;;;;;0.38;79.73;97336.19;4839056;29;19916;-64
2022/12/10 18:34:28;;;;;;;;;;;;;;;0.42;80.19;97340.34;4840530;29;19919;-64
2022/12/10 18:36:54;;;;;;;;;;;;;;;0.44;79.54;97341.13;4838602;29;19912;-64
2022/12/10 18:39:19;;;;;;;;;;;;;;;0.48;79.02;97340.06;4838879;29;19916;-63
2022/12/10 18:41:45;;;;;;;;;;;;;;;0.46;79.43;97335.00;4839577;29;20137;-63
2022/12/10 18:44:10;;;;;;;;;;;;;;;0.48;79.33;97340.06;4840138;29;19931;-63
2022/12/10 18:46:36;;;;;;;;;;;;;;;0.44;78.75;97333.38;4840959;29;19913;-64
2022/12/10 18:49:02;;;;;;;;;;;;;;;0.42;79.47;97341.19;4838563;29;19953;-64
2022/12/10 18:51:27;;;;;;;;;;;;;;;0.39;79.08;97349.06;4837537;29;20478;-63
2022/12/10 18:53:52;;;;;;;;;;;;;;;0.34;79.10;97350.97;4838865;29;19916;-64
2022/12/10 18:56:22;;;;;;;;;;;;;;;0.37;79.40;97340.53;4834445;29;19923;-63
2022/12/10 18:58:47;;;;;;;;;;;;;;;0.34;79.07;97344.97;4838357;29;19916;-64
2022/12/10 19:01:13;;;;;;;;;;;;;;;0.34;79.89;97350.97;4838753;29;19916;-64
2022/12/10 19:03:38;;;;;;;;;;;;;;;0.35;79.53;97344.94;4839934;29;19918;-64
2022/12/10 19:06:04;;;;;;;;;;;;;;;0.37;79.17;97350.00;4838535;29;20397;-64
2022/12/10 19:08:29;;;;;;;;;;;;;;;0.39;79.37;97350.81;4837791;29;19916;-62
2022/12/10 19:10:55;;;;;;;;;;;;;;;0.41;79.38;97351.56;4840297;29;20313;-64
2022/12/10 19:13:20;;;;;;;;;;;;;;;0.44;79.22;97354.00;4838800;29;19916;-62
2022/12/10 19:15:45;;;;;;;;;;;;;;;0.48;79.20;97347.81;4837952;29;20380;-64
2022/12/10 19:18:11;;;;;;;;;;;;;;;0.47;78.63;97351.31;4836676;29;19924;-63
2022/12/10 19:20:36;;;;;;;;;;;;;;;0.45;78.51;97353.13;4837621;29;19980;-64
2022/12/10 19:23:01;;;;;;;;;;;;;;;0.41;78.61;97351.56;4838854;29;20032;-64
2022/12/10 19:25:26;;;;;;;;;;;;;;;0.40;78.78;97347.31;4853738;29;20489;-64
2022/12/10 19:27:51;;;;;;;;;;;;;;;0.45;78.83;97347.97;4837929;29;19923;-64
2022/12/10 19:30:17;;;;;;;;;;;;;;;0.47;79.21;97351.31;4837608;29;19920;-64
2022/12/10 19:32:42;;;;;;;;;;;;;;;0.44;78.65;97347.09;4839332;29;19917;-64
2022/12/10 19:35:08;;;;;;;;;;;;;;;0.44;78.27;97347.09;4839792;29;19944;-63
2022/12/10 19:37:34;;;;;;;;;;;;;;;0.89;90.25;97342.63;4839183;29;19912;-63
2022/12/10 19:39:59;;;;;;;;;;;;;;;0.70;81.92;97353.75;4838669;29;19972;-63
2022/12/10 19:42:25;;;;;;;;;;;;;;;0.67;79.06;97355.63;4833478;29;19916;-64
2022/12/10 19:44:51;;;;;;;;;;;;;;;0.57;78.28;97350.03;4838261;29;19924;-63
2022/12/10 19:47:16;;;;;;;;;;;;;;;0.46;78.61;97352.22;4840477;29;20206;-64
2022/12/10 19:49:41;;;;;;;;;;;;;;;0.43;78.62;97352.34;4842849;29;19920;-65
2022/12/10 19:52:06;;;;;;;;;;;;;;;0.41;78.64;97352.41;4840507;29;19998;-65
2022/12/10 19:54:32;;;;;;;;;;;;;;;0.45;78.65;97353.13;4841265;29;20060;-65
2022/12/10 19:56:57;;;;;;;;;;;;;;;0.45;78.51;97358.28;4843078;29;19920;-63
2022/12/10 19:59:22;;;;;;;;;;;;;;;0.46;78.17;97349.63;4840873;29;19924;-64
2022/12/10 20:01:47;;;;;;;;;;;;;;;0.45;78.37;97353.13;4843578;29;19916;-64
2022/12/10 20:04:13;;;;;;;;;;;;;;;0.39;78.27;97359.38;4840921;29;19924;-64
2022/12/10 20:06:39;;;;;;;;;;;;;;;0.36;78.59;97369.81;4857548;29;19934;-65
2022/12/10 20:09:06;;;;;;;;;;;;;;;0.39;78.19;97368.84;4841674;29;19920;-64
2022/12/10 20:11:31;;;;;;;;;;;;;;;0.41;78.13;97374.78;4839882;29;19923;-64
2022/12/10 20:13:57;;;;;;;;;;;;;;;0.41;78.15;97377.34;4837061;29;19916;-65
2022/12/10 20:16:23;;;;;;;;;;;;;;;0.38;78.04;97372.31;4855238;29;20270;-64
2022/12/10 20:18:48;;;;;;;;;;;;;;;0.39;78.17;97363.69;4839207;29;20112;-64
2022/12/10 20:21:14;;;;;;;;;;;;;;;0.45;78.26;97360.88;4857717;29;19916;-64
2022/12/10 20:23:39;;;;;;;;;;;;;;;0.46;78.52;97362.53;4843075;29;20007;-65
2022/12/10 20:26:06;;;;;;;;;;;;;;;0.45;78.68;97363.44;4839807;29;19939;-65
2022/12/10 20:28:31;;;;;;;;;;;;;;;0.47;78.36;97359.88;4843324;29;19916;-64
2022/12/10 20:30:57;;;;;;;;;;;;;;;0.41;78.58;97354.13;4826327;29;19916;-64
2022/12/10 20:33:22;;;;;;;;;;;;;;;0.42;78.10;97358.41;4855288;29;20015;-64
2022/12/10 20:35:47;;;;;;;;;;;;;;;0.33;77.89;97358.78;4840130;29;20365;-63
2022/12/10 20:38:13;;;;;;;;;;;;;;;0.35;78.17;97360.41;4837753;29;19916;-65
2022/12/10 20:40:38;;;;;;;;;;;;;;;0.39;78.14;97361.13;4842378;29;19917;-65
2022/12/10 20:43:03;;;;;;;;;;;;;;;0.35;78.52;97357.81;4843335;29;19920;-64
2022/12/10 20:45:28;;;;;;;;;;;;;;;0.37;78.26;97350.00;4827013;29;20360;-65
2022/12/10 20:47:54;;;;;;;;;;;;;;;0.38;78.21;97351.69;4836575;29;20007;-64
2022/12/10 20:50:19;;;;;;;;;;;;;;;0.36;78.51;97351.75;4854884;29;20428;-64
2022/12/10 20:52:44;;;;;;;;;;;;;;;0.34;78.24;97355.28;4834798;29;20444;-63
2022/12/10 20:55:10;;;;;;;;;;;;;;;0.33;78.47;97358.78;4835891;29;19920;-63
2022/12/10 20:57:35;;;;;;;;;;;;;;;0.39;78.10;97367.13;4853647;29;19924;-64
2022/12/10 21:00:00;;;;;;;;;;;;;;;0.37;77.85;97368.06;4838822;29;20381;-64
2022/12/10 21:02:26;;;;;;;;;;;;;;;0.33;78.29;97371.69;4841648;29;19920;-64
2022/12/10 21:04:51;;;;;;;;;;;;;;;0.29;79.00;97373.56;4837439;29;19924;-64
2022/12/10 21:07:16;;;;;;;;;;;;;;;0.34;78.66;97366.44;4842014;29;19980;-64
2022/12/10 21:09:41;;;;;;;;;;;;;;;0.39;78.83;97374.84;4837387;29;19927;-64
2022/12/10 21:12:07;;;;;;;;;;;;;;;0.46;78.76;97362.53;4842257;29;20100;-64
2022/12/10 21:14:32;;;;;;;;;;;;;;;0.50;78.28;97365.84;4838557;29;19920;-64
2022/12/10 21:16:57;;;;;;;;;;;;;;;0.43;77.80;97365.25;4841419;29;19940;-64
2022/12/10 21:19:22;;;;;;;;;;;;;;;0.42;77.43;97363.56;4841531;29;19920;-64
2022/12/10 21:21:48;;;;;;;;;;;;;;;0.33;77.86;97369.09;4842754;29;19923;-64
2022/12/10 21:24:13;;;;;;;;;;;;;;;0.32;77.66;97362.28;4840285;29;20007;-64
2022/12/10 21:26:38;;;;;;;;;;;;;;;0.30;77.95;97369.22;4840956;29;19959;-64
2022/12/10 21:29:03;;;;;;;;;;;;;;;0.25;78.33;97366.84;4841961;29;19963;-64
2022/12/10 21:31:29;;;;;;;;;;;;;;;0.26;78.17;97367.69;4841724;29;19944;-65
2022/12/10 21:33:54;;;;;;;;;;;;;;;0.22;77.53;97361.81;4840578;29;20018;-65
2022/12/10 21:36:20;;;;;;;;;;;;;;;0.19;77.96;97367.91;4839695;29;20015;-63
2022/12/10 21:38:45;;;;;;;;;;;;;;;0.17;77.87;97364.59;4854768;29;19923;-64
2022/12/10 21:43:57;;;;;;;;;;;;;;;0.15;78.71;97365.53;4846284;29;20301;-64
2022/12/10 21:46:22;;;;;;;;;;;;;;;0.12;78.24;97371.66;4839972;29;19925;-63
2022/12/10 21:48:47;;;;;;;;;;;;;;;0.13;78.37;97370.75;4837226;29;19928;-63
2022/12/10 21:51:12;;;;;;;;;;;;;;;0.15;77.99;97368.94;4839385;29;19935;-64
2022/12/10 21:53:38;;;;;;;;;;;;;;;0.19;77.41;97373.06;4853676;29;19929;-63
2022/12/10 21:56:09;;;;;;;;;;;;;;;0.16;77.32;97367.22;4842120;29;19986;-64
2022/12/10 21:58:34;;;;;;;;;;;;;;;0.19;77.24;97367.09;4851015;29;19916;-64
2022/12/10 22:00:59;;;;;;;;;;;;;;;0.23;77.30;97366.88;4839992;29;20561;-63
2022/12/10 22:03:25;;;;;;;;;;;;;;;0.27;77.84;97369.34;4839923;29;19981;-63
2022/12/10 22:05:50;;;;;;;;;;;;;;;0.29;77.66;97365.81;4840416;29;19928;-63
2022/12/10 22:08:15;;;;;;;;;;;;;;;0.30;77.16;97369.22;4841748;29;19917;-63
2022/12/10 22:10:40;;;;;;;;;;;;;;;0.32;77.62;97368.28;4838833;29;20304;-63
2022/12/10 22:13:10;;;;;;;;;;;;;;;0.39;77.71;97366.28;4838783;29;20281;-63
2022/12/10 22:15:35;;;;;;;;;;;;;;;0.39;76.62;97374.03;4839636;29;20019;-63
2022/12/10 22:18:00;;;;;;;;;;;;;;;0.41;76.78;97364.47;4835618;29;19916;-64
2022/12/10 22:20:25;;;;;;;;;;;;;;;0.40;76.56;97366.19;4823026;29;19981;-64
2022/12/10 22:22:50;;;;;;;;;;;;;;;0.39;76.95;97363.69;4841003;29;19949;-66
2022/12/10 22:25:16;;;;;;;;;;;;;;;0.34;76.54;97369.03;4840074;29;19916;-65
